Time;durP1;ratioP1;P1;durP2;ratioP2;P2;SDS_P1;SDS_P2;PMS_P1;PMS_P2;Temp;Humidity;BMP_temperature;BMP_pressure;BME280_temperature;BME280_humidity;BME280_pressure;Samples;Min_cycle;Max_cycle;Signal;HPM_P1;HPM_P2
2021/05/01 00:00:59;;;;;;;8.27;4.90;;;;;;;20.46;58.75;94698.53;5072786;28;20451;-74
2021/05/01 00:03:26;;;;;;;6.83;5.33;;;;;;;20.44;58.86;94697.09;5072767;28;20452;-73
2021/05/01 00:05:53;;;;;;;8.37;5.17;;;;;;;20.39;58.94;94693.16;5072478;28;20932;-74
2021/05/01 00:08:19;;;;;;;14.23;5.60;;;;;;;20.38;58.64;94685.34;5072664;28;20447;-74
2021/05/01 00:10:46;;;;;;;9.93;4.93;;;;;;;20.34;59.04;94689.44;5072504;28;20476;-73
2021/05/01 00:13:12;;;;;;;14.03;5.10;;;;;;;20.32;58.82;94694.13;5072875;28;20444;-74
2021/05/01 00:15:39;;;;;;;5.90;4.93;;;;;;;20.30;58.84;94681.00;5072459;28;20484;-73
2021/05/01 00:18:05;;;;;;;8.07;4.37;;;;;;;20.23;58.62;94692.59;5072563;28;20447;-74
2021/05/01 00:20:32;;;;;;;9.63;4.83;;;;;;;20.22;58.88;94702.44;5072758;28;20855;-73
2021/05/01 00:22:59;;;;;;;15.43;5.23;;;;;;;20.21;59.02;94702.63;5072715;28;20445;-74
2021/05/01 00:25:26;;;;;;;8.20;4.70;;;;;;;20.18;59.13;94701.19;5053724;28;20448;-73
2021/05/01 00:27:53;;;;;;;6.03;4.93;;;;;;;20.11;59.20;94706.47;5072639;28;20450;-74
2021/05/01 00:30:20;;;;;;;8.60;5.90;;;;;;;20.06;59.48;94700.91;5053705;28;20449;-73
2021/05/01 00:32:46;;;;;;;14.70;5.80;;;;;;;20.03;59.83;94706.63;5072302;28;20444;-75
2021/05/01 00:35:12;;;;;;;9.97;5.40;;;;;;;20.04;59.70;94710.09;5072413;28;20835;-74
2021/05/01 00:37:39;;;;;;;12.53;4.90;;;;;;;20.03;59.94;94705.78;5072650;28;20469;-73
2021/05/01 00:40:08;;;;;;;8.27;5.50;;;;;;;20.01;59.67;94706.00;5072457;28;20447;-74
2021/05/01 00:42:36;;;;;;;8.93;5.13;;;;;;;20.02;59.91;94712.13;5072222;28;20448;-74
2021/05/01 00:45:03;;;;;;;7.73;5.00;;;;;;;20.02;59.93;94714.81;5075474;28;20451;-74
2021/05/01 00:47:29;;;;;;;13.80;6.17;;;;;;;20.00;59.95;94712.34;5076506;28;20447;-74
2021/05/01 00:49:56;;;;;;;8.83;5.03;;;;;;;19.99;59.89;94709.88;5076331;28;20479;-74
2021/05/01 00:52:23;;;;;;;11.73;6.80;;;;;;;19.97;60.25;94703.91;5076254;28;20506;-74
2021/05/01 00:54:49;;;;;;;14.53;5.73;;;;;;;19.92;60.26;94711.63;5076248;28;20485;-74
2021/05/01 00:57:17;;;;;;;6.10;4.77;;;;;;;19.86;60.76;94717.72;5040863;28;20480;-74
2021/05/01 00:59:43;;;;;;;11.00;5.07;;;;;;;19.86;60.62;94718.53;5076028;28;20459;-74
2021/05/01 01:02:15;;;;;;;7.70;5.27;;;;;;;19.85;60.72;94716.06;5076288;28;20930;-74
2021/05/01 01:04:42;;;;;;;10.10;4.73;;;;;;;19.84;60.72;94707.25;5073812;28;20783;-73
2021/05/01 01:07:08;;;;;;;12.20;5.20;;;;;;;19.79;61.00;94705.19;5075967;28;20939;-74
2021/05/01 01:09:35;;;;;;;8.87;5.30;;;;;;;19.74;61.33;94715.56;5075973;28;20469;-74
2021/05/01 01:12:01;;;;;;;8.87;5.10;;;;;;;19.70;62.14;94700.19;5076316;28;20562;-74
2021/05/01 01:14:28;;;;;;;9.37;5.97;;;;;;;19.70;62.44;94698.34;5040185;28;20565;-74
2021/05/01 01:16:55;;;;;;;5.07;4.57;;;;;;;19.68;62.79;94691.56;5075880;28;20447;-74
2021/05/01 01:19:21;;;;;;;11.03;5.37;;;;;;;19.61;62.94;94699.47;5076097;28;20441;-74
2021/05/01 01:21:49;;;;;;;16.67;5.30;;;;;;;19.57;63.68;94703.53;5076097;28;20456;-74
2021/05/01 01:24:18;;;;;;;7.73;5.27;;;;;;;19.55;63.73;94689.56;5075707;28;20461;-73
2021/05/01 01:26:44;;;;;;;13.13;6.47;;;;;;;19.56;63.49;94691.22;5075698;28;20834;-74
2021/05/01 01:29:14;;;;;;;10.97;4.90;;;;;;;19.57;63.55;94684.06;5075441;28;20449;-74
2021/05/01 01:31:41;;;;;;;13.03;5.07;;;;;;;19.53;63.72;94688.94;5075612;28;20472;-75
2021/05/01 01:34:07;;;;;;;6.23;5.20;;;;;;;19.53;63.34;94680.97;5075457;28;20487;-74
2021/05/01 01:36:34;;;;;;;9.33;5.13;;;;;;;19.53;63.31;94675.63;5075371;28;20455;-74
2021/05/01 01:39:00;;;;;;;12.13;4.97;;;;;;;19.50;63.34;94681.31;5075510;28;20914;-75
2021/05/01 01:41:28;;;;;;;7.70;5.00;;;;;;;19.53;62.88;94686.28;5075083;28;20458;-74
2021/05/01 01:43:54;;;;;;;12.07;5.47;;;;;;;19.52;62.89;94679.28;5075562;28;20447;-74
2021/05/01 01:46:20;;;;;;;11.50;5.87;;;;;;;19.53;62.74;94678.31;5075657;28;20454;-74
2021/05/01 01:48:47;;;;;;;5.73;4.37;;;;;;;19.45;62.52;94681.06;5075259;28;20438;-75
2021/05/01 01:51:13;;;;;;;8.03;4.27;;;;;;;19.47;62.35;94679.03;5075382;28;20454;-74
2021/05/01 01:53:39;;;;;;;14.80;5.53;;;;;;;19.43;62.28;94677.78;5074924;28;20446;-74
2021/05/01 01:56:06;;;;;;;12.13;5.93;;;;;;;19.40;62.33;94671.00;5055420;28;20447;-74
2021/05/01 01:58:33;;;;;;;7.50;4.60;;;;;;;19.36;62.44;94682.19;5075157;28;20771;-74
2021/05/01 02:01:00;;;;;;;16.27;6.03;;;;;;;19.27;62.37;94672.66;5075252;28;20451;-74
2021/05/01 02:03:26;;;;;;;9.80;4.77;;;;;;;19.32;62.30;94671.09;5074951;28;20501;-74
2021/05/01 02:05:52;;;;;;;13.63;5.30;;;;;;;19.21;62.35;94690.22;5074952;28;20508;-74
2021/05/01 02:08:19;;;;;;;13.33;5.93;;;;;;;19.00;62.83;94680.34;5074989;28;20457;-75
2021/05/01 02:10:45;;;;;;;9.80;5.43;;;;;;;18.93;63.03;94674.13;5074670;28;20477;-74
2021/05/01 02:13:12;;;;;;;8.23;4.70;;;;;;;18.90;63.38;94695.78;5074990;28;20449;-74
2021/05/01 02:15:39;;;;;;;23.83;5.10;;;;;;;18.82;63.17;94687.91;5074782;28;20497;-74
2021/05/01 02:18:05;;;;;;;20.97;5.43;;;;;;;18.83;63.19;94694.88;5074760;28;20445;-74
2021/05/01 02:20:35;;;;;;;10.70;4.40;;;;;;;18.76;63.47;94713.38;5074590;28;20844;-74
2021/05/01 02:23:03;;;;;;;12.67;5.07;;;;;;;18.81;63.28;94712.88;5074812;28;20438;-74
2021/05/01 02:25:29;;;;;;;16.03;5.07;;;;;;;18.81;63.64;94718.19;5074936;28;20531;-74
2021/05/01 02:27:56;;;;;;;10.97;5.10;;;;;;;18.78;63.80;94713.19;5074765;28;20927;-74
2021/05/01 02:30:24;;;;;;;11.37;5.60;;;;;;;18.79;63.30;94705.06;5055697;28;20532;-74
2021/05/01 02:32:52;;;;;;;6.37;4.97;;;;;;;18.81;63.16;94699.56;5074730;28;20843;-74
2021/05/01 02:35:20;;;;;;;12.17;5.03;;;;;;;18.82;63.09;94696.72;5074020;28;20584;-74
2021/05/01 02:37:47;;;;;;;9.43;5.00;;;;;;;18.82;63.04;94698.56;5074215;28;20453;-74
2021/05/01 02:40:16;;;;;;;9.90;5.80;;;;;;;18.41;65.31;94688.34;5074408;28;20467;-74
2021/05/01 02:42:43;;;;;;;12.60;6.17;;;;;;;18.35;66.92;94699.72;5073951;28;20446;-74
2021/05/01 02:45:12;;;;;;;9.47;5.37;;;;;;;18.50;66.73;94695.25;5074074;28;20458;-75
2021/05/01 02:47:39;;;;;;;14.03;6.03;;;;;;;18.29;68.34;94689.00;5074051;28;20448;-74
2021/05/01 02:50:08;;;;;;;8.57;6.60;;;;;;;18.35;68.61;94699.72;5073872;28;20862;-74
2021/05/01 02:52:35;;;;;;;11.40;5.60;;;;;;;18.40;68.61;94697.31;5073266;28;20813;-74
2021/05/01 02:55:01;;;;;;;12.90;6.63;;;;;;;18.27;70.16;94690.00;5072836;28;20510;-74
2021/05/01 02:57:28;;;;;;;9.10;6.67;;;;;;;18.21;70.52;94696.06;5073025;28;20531;-74
2021/05/01 02:59:54;;;;;;;14.90;6.03;;;;;;;18.19;71.04;94718.47;5073026;28;20442;-74
2021/05/01 03:02:20;;;;;;;10.43;7.07;;;;;;;18.08;71.52;94717.06;5037615;28;20502;-75
2021/05/01 03:04:47;;;;;;;12.20;6.97;;;;;;;18.03;71.23;94702.69;5072955;28;20523;-74
2021/05/01 03:07:14;;;;;;;13.10;6.97;;;;;;;17.92;71.28;94718.03;5072760;28;20452;-74
2021/05/01 03:09:40;;;;;;;11.20;6.77;;;;;;;18.01;71.53;94704.72;5072582;28;20945;-75
2021/05/01 03:12:07;;;;;;;17.90;7.37;;;;;;;18.08;70.90;94710.94;5072711;28;20460;-74
2021/05/01 03:14:33;;;;;;;12.80;6.10;;;;;;;18.14;69.98;94711.03;5071140;28;20899;-74
2021/05/01 03:16:59;;;;;;;10.00;6.67;;;;;;;18.19;68.99;94715.81;5005109;28;20444;-74
2021/05/01 03:19:26;;;;;;;12.40;5.50;;;;;;;18.22;68.46;94718.13;5073364;28;20448;-75
2021/05/01 03:21:52;;;;;;;6.70;5.50;;;;;;;18.22;67.23;94707.50;5073657;28;20450;-74
2021/05/01 03:24:19;;;;;;;11.60;6.00;;;;;;;18.21;66.85;94722.59;5073170;28;20502;-74
2021/05/01 03:26:46;;;;;;;18.07;6.53;;;;;;;18.21;65.93;94725.25;5073287;28;20463;-74
2021/05/01 03:29:12;;;;;;;12.10;5.33;;;;;;;18.12;65.58;94725.50;5073734;28;20795;-74
2021/05/01 03:31:39;;;;;;;10.33;5.13;;;;;;;18.01;65.44;94715.31;5073231;28;20448;-74
2021/05/01 03:34:06;;;;;;;7.53;5.30;;;;;;;18.13;65.39;94745.75;5073052;28;20483;-74
2021/05/01 03:36:32;;;;;;;9.60;6.30;;;;;;;18.15;65.35;94735.75;5073022;28;20460;-74
2021/05/01 03:38:59;;;;;;;9.63;5.50;;;;;;;18.16;64.96;94719.66;5073226;28;20933;-74
2021/05/01 03:41:26;;;;;;;10.40;5.73;;;;;;;18.05;65.45;94729.88;5072861;28;20497;-74
2021/05/01 03:43:52;;;;;;;13.67;5.90;;;;;;;18.10;65.55;94728.34;5073153;28;20521;-74
2021/05/01 03:46:18;;;;;;;6.43;4.67;;;;;;;18.17;65.38;94731.09;5072852;28;20448;-73
2021/05/01 03:48:45;;;;;;;13.23;5.50;;;;;;;18.11;65.18;94734.47;5078319;28;20447;-75
2021/05/01 03:51:11;;;;;;;21.30;6.20;;;;;;;18.19;65.64;94723.75;5075623;28;20469;-74
2021/05/01 03:53:37;;;;;;;8.30;5.43;;;;;;;18.23;65.38;94725.09;5093150;28;20788;-74
2021/05/01 03:56:04;;;;;;;13.83;5.50;;;;;;;18.27;64.93;94723.72;5073659;28;20528;-75
2021/05/01 03:58:31;;;;;;;12.67;5.47;;;;;;;18.35;65.29;94728.94;5088611;28;20444;-74
2021/05/01 04:00:58;;;;;;;11.43;5.23;;;;;;;18.42;64.58;94724.53;5093138;28;20440;-74
2021/05/01 04:03:24;;;;;;;9.63;5.60;;;;;;;18.49;64.64;94736.09;5092784;28;20967;-74
2021/05/01 04:05:50;;;;;;;13.17;5.43;;;;;;;18.58;64.36;94731.53;5093075;28;20445;-75
2021/05/01 04:08:17;;;;;;;18.20;5.40;;;;;;;18.60;64.09;94734.00;5092977;28;20915;-74
2021/05/01 04:10:43;;;;;;;11.97;7.70;;;;;;;18.64;64.52;94740.63;5093073;28;20506;-74
2021/05/01 04:13:09;;;;;;;6.80;6.10;;;;;;;18.65;64.44;94736.97;5057161;28;20508;-74
2021/05/01 04:15:37;;;;;;;10.97;5.60;;;;;;;18.68;64.22;94745.38;5092789;28;20511;-74
2021/05/01 04:18:03;;;;;;;6.53;4.90;;;;;;;18.67;64.00;94742.91;5092440;28;20449;-75
2021/05/01 04:20:30;;;;;;;13.07;5.67;;;;;;;18.69;64.47;94752.34;5092590;28;20911;-74
2021/05/01 04:22:57;;;;;;;11.80;6.20;;;;;;;18.69;64.54;94740.91;5091659;28;20440;-75
2021/05/01 04:25:23;;;;;;;16.33;6.80;;;;;;;18.74;65.15;94742.00;5090780;28;20796;-74
2021/05/01 04:27:50;;;;;;;13.53;6.70;;;;;;;18.88;65.20;94735.84;5073824;28;20449;-74
2021/05/01 04:30:17;;;;;;;10.57;6.07;;;;;;;19.20;65.19;94733.78;5082790;28;20457;-74
2021/05/01 04:32:44;;;;;;;10.10;7.30;;;;;;;19.66;64.29;94731.69;5075478;28;20465;-74
2021/05/01 04:35:11;;;;;;;9.37;5.47;;;;;;;20.09;62.69;94734.31;5088261;28;20538;-80
2021/05/01 04:37:37;;;;;;;8.60;5.67;;;;;;;20.56;66.50;94720.38;5093331;28;20448;-77
2021/05/01 04:40:05;;;;;;;7.10;5.30;;;;;;;21.00;58.78;94725.31;5093945;28;20435;-77
2021/05/01 04:42:31;;;;;;;9.97;5.53;;;;;;;21.32;62.54;94734.50;5093394;28;20463;-78
2021/05/01 04:44:57;;;;;;;14.07;5.27;;;;;;;21.36;57.44;94721.59;5090577;28;20942;-78
2021/05/01 04:47:24;;;;;;;13.33;5.53;;;;;;;21.34;56.50;94728.97;5072333;28;20497;-75
2021/05/01 04:49:51;;;;;;;15.20;5.33;;;;;;;21.31;56.00;94740.06;5078883;28;20472;-74
2021/05/01 04:52:17;;;;;;;16.60;5.90;;;;;;;21.33;55.97;94741.50;5056887;28;20451;-75
2021/05/01 04:54:44;;;;;;;7.97;4.60;;;;;;;21.63;54.40;94736.66;5092558;28;20476;-75
2021/05/01 04:57:10;;;;;;;21.00;10.07;;;;;;;22.21;56.05;94736.97;5087311;28;20450;-76
2021/05/01 04:59:36;;;;;;;13.03;8.07;;;;;;;22.72;58.00;94744.38;5075316;28;20449;-76
2021/05/01 05:02:03;;;;;;;21.40;10.57;;;;;;;23.07;57.45;94746.78;5093025;28;20434;-77
2021/05/01 05:04:29;;;;;;;81.53;44.47;;;;;;;23.23;52.38;94751.69;5092849;28;20454;-77
2021/05/01 05:06:56;;;;;;;235.40;147.53;;;;;;;23.21;54.30;94748.41;5093139;28;20444;-77
2021/05/01 05:09:22;;;;;;;452.55;263.25;;;;;;;23.39;53.42;94745.84;5092005;28;20445;-76
2021/05/01 05:11:49;;;;;;;320.47;151.87;;;;;;;23.57;52.33;94752.41;5090690;28;20239;-76
2021/05/01 05:14:15;;;;;;;114.80;55.07;;;;;;;23.69;51.35;94750.69;5092706;28;20495;-76
2021/05/01 05:16:41;;;;;;;91.53;43.87;;;;;;;23.87;51.78;94760.69;5093470;28;20784;-77
2021/05/01 05:19:08;;;;;;;50.13;23.53;;;;;;;24.35;50.02;94767.22;5092582;28;20445;-77
2021/05/01 05:21:35;;;;;;;27.73;14.37;;;;;;;24.73;47.92;94757.41;5093132;28;20479;-77
2021/05/01 05:24:03;;;;;;;10.63;8.33;;;;;;;25.03;45.11;94753.00;5093015;28;20447;-75
2021/05/01 05:26:30;;;;;;;12.73;5.67;;;;;;;25.22;44.63;94760.03;5083620;28;20451;-74
2021/05/01 05:28:56;;;;;;;12.27;5.50;;;;;;;25.41;43.79;94754.63;5071856;28;20448;-75
2021/05/01 05:31:23;;;;;;;11.17;5.53;;;;;;;25.39;43.30;94752.19;5086034;28;20451;-74
2021/05/01 05:33:49;;;;;;;9.53;5.03;;;;;;;25.23;43.08;94742.88;5093231;28;20461;-74
2021/05/01 05:36:15;;;;;;;11.47;5.60;;;;;;;25.05;43.55;94748.22;5093058;28;20482;-75
2021/05/01 05:38:42;;;;;;;9.90;5.17;;;;;;;24.77;43.79;94753.22;5059687;28;20438;-74
2021/05/01 05:41:09;;;;;;;7.80;5.10;;;;;;;24.48;46.87;94747.50;5086135;28;20455;-74
2021/05/01 05:43:35;;;;;;;11.17;4.80;;;;;;;24.23;46.50;94758.19;5075017;28;20443;-74
2021/05/01 05:46:12;;;;;;;12.77;6.50;;;;;;;24.03;46.55;94755.66;5075149;28;20455;-76
2021/05/01 05:48:38;;;;;;;20.50;5.13;;;;;;;23.86;47.94;94757.19;5076600;28;20543;-74
2021/05/01 05:51:05;;;;;;;9.07;4.77;;;;;;;23.86;46.63;94759.88;5077728;28;20456;-74
2021/05/01 05:53:31;;;;;;;11.10;6.33;;;;;;;24.07;46.20;94759.53;5075062;28;20459;-78
2021/05/01 05:55:57;;;;;;;14.97;5.43;;;;;;;24.46;45.84;94757.63;5075236;28;20489;-75
2021/05/01 05:58:25;;;;;;;9.10;5.47;;;;;;;24.89;44.04;94767.59;5075499;28;20932;-77
2021/05/01 06:00:51;;;;;;;20.40;5.37;;;;;;;25.18;42.97;94764.22;5081751;28;20447;-74
2021/05/01 06:03:19;;;;;;;15.83;5.30;;;;;;;25.62;43.17;94762.25;5039526;28;20450;-74
2021/05/01 06:05:49;;;;;;;11.87;5.20;;;;;;;26.11;42.20;94757.69;5074711;28;20448;-74
2021/05/01 06:08:17;;;;;;;11.93;5.00;;;;;;;26.53;40.25;94759.31;5072423;28;20448;-74
2021/05/01 06:10:44;;;;;;;13.10;5.40;;;;;;;26.89;39.20;94754.81;5082692;28;20480;-74
2021/05/01 06:13:14;;;;;;;11.60;5.20;;;;;;;27.32;39.09;94757.13;5094757;28;20444;-74
2021/05/01 06:15:42;;;;;;;11.77;4.87;;;;;;;27.70;39.22;94759.28;5059365;28;20484;-75
2021/05/01 06:18:10;;;;;;;11.67;4.70;;;;;;;28.06;37.35;94762.69;5094999;28;20448;-75
2021/05/01 06:20:37;;;;;;;6.80;4.97;;;;;;;28.37;36.76;94770.31;5094737;28;20444;-75
2021/05/01 06:23:04;;;;;;;25.77;7.87;;;;;;;28.60;36.20;94750.44;5094643;28;20493;-74
2021/05/01 06:25:30;;;;;;;10.47;4.67;;;;;;;28.90;36.16;94752.81;5094660;28;20996;-74
2021/05/01 06:27:56;;;;;;;9.57;4.87;;;;;;;29.22;35.72;94754.94;5093777;28;20451;-75
2021/05/01 06:30:23;;;;;;;106.93;11.87;;;;;;;29.36;35.73;94750.78;5066348;28;20440;-74
2021/05/01 06:32:51;;;;;;;30.33;6.20;;;;;;;29.53;35.47;94738.06;5074261;28;20437;-74
2021/05/01 06:35:19;;;;;;;37.07;6.10;;;;;;;29.78;34.68;94750.25;5074008;28;20572;-74
2021/05/01 06:37:47;;;;;;;16.57;5.17;;;;;;;29.69;35.19;94739.06;5074417;28;20452;-74
2021/05/01 06:40:15;;;;;;;10.77;5.37;;;;;;;29.46;35.14;94720.38;5077720;28;20945;-74
2021/05/01 06:42:45;;;;;;;9.23;4.97;;;;;;;29.47;35.67;94722.00;5093932;28;20444;-74
2021/05/01 06:45:13;;;;;;;11.77;5.63;;;;;;;29.22;36.36;94727.91;5094474;28;20444;-74
2021/05/01 06:47:47;;;;;;;12.40;5.07;;;;;;;28.53;37.63;94721.97;5094304;28;20542;-74
2021/05/01 06:50:15;;;;;;;6.67;4.30;;;;;;;28.49;37.90;94724.34;5090491;28;20453;-75
2021/05/01 06:52:43;;;;;;;7.43;4.20;;;;;;;28.29;38.52;94727.50;5078200;28;20509;-75
2021/05/01 06:55:13;;;;;;;9.67;5.57;;;;;;;27.93;38.71;94725.22;5079335;28;20595;-75
2021/05/01 06:57:44;;;;;;;7.83;4.43;;;;;;;27.89;39.03;94737.53;5073720;28;20445;-72
2021/05/01 07:00:11;;;;;;;7.20;5.03;;;;;;;27.64;40.66;94741.38;5085738;28;21002;-73
2021/05/01 07:02:40;;;;;;;10.30;5.77;;;;;;;27.39;40.25;94751.59;5073781;28;20445;-73
2021/05/01 07:05:09;;;;;;;7.90;4.50;;;;;;;27.16;41.31;94755.16;5073295;28;20444;-72
2021/05/01 07:07:36;;;;;;;15.33;6.77;;;;;;;27.29;41.83;94763.00;5073410;28;20456;-72
2021/05/01 07:10:06;;;;;;;12.07;5.13;;;;;;;27.48;40.75;94752.91;5067977;28;20488;-72
2021/05/01 07:12:34;;;;;;;10.70;5.70;;;;;;;27.93;40.59;94762.97;5092580;28;20485;-73
2021/05/01 07:15:03;;;;;;;14.70;6.20;;;;;;;28.04;39.54;94771.00;5093432;28;20223;-73
2021/05/01 07:17:30;;;;;;;10.57;5.60;;;;;;;27.95;41.00;94772.47;5093754;28;20444;-72
2021/05/01 07:19:59;;;;;;;8.40;5.17;;;;;;;27.62;40.28;94778.53;5084156;28;20452;-72
2021/05/01 07:22:25;;;;;;;14.40;6.20;;;;;;;27.25;41.97;94782.56;5083023;28;20954;-72
2021/05/01 07:24:53;;;;;;;6.27;4.97;;;;;;;27.16;41.62;94791.00;5073806;28;20448;-72
2021/05/01 07:27:21;;;;;;;9.53;5.37;;;;;;;26.94;43.16;94797.19;5093405;28;20440;-74
2021/05/01 07:29:50;;;;;;;12.43;5.13;;;;;;;26.60;43.32;94806.84;5093602;28;20436;-72
2021/05/01 07:32:18;;;;;;;10.20;5.50;;;;;;;26.53;44.50;94815.84;5093379;28;20843;-73
2021/05/01 07:34:50;;;;;;;10.17;5.70;;;;;;;26.24;43.03;94808.59;5080522;28;21007;-72
2021/05/01 07:37:19;;;;;;;11.70;5.50;;;;;;;26.03;44.74;94827.94;5072814;28;20957;-74
2021/05/01 07:39:49;;;;;;;14.53;5.50;;;;;;;26.01;43.43;94812.00;5072766;28;20444;-72
2021/05/01 07:42:17;;;;;;;8.50;5.63;;;;;;;26.10;44.89;94818.72;5072573;28;20911;-72
2021/05/01 07:44:46;;;;;;;15.30;5.50;;;;;;;26.36;44.35;94822.97;5073131;28;20440;-72
2021/05/01 07:47:15;;;;;;;13.37;6.07;;;;;;;26.50;44.21;94818.19;5072687;28;20444;-72
2021/05/01 07:49:42;;;;;;;12.87;6.77;;;;;;;26.70;44.85;94820.56;5072893;28;20440;-73
2021/05/01 07:52:09;;;;;;;8.60;6.37;;;;;;;26.83;43.92;94833.81;5072587;28;20449;-72
2021/05/01 07:54:41;;;;;;;9.50;5.50;;;;;;;26.99;43.29;94822.41;5071851;28;20480;-72
2021/05/01 07:57:08;;;;;;;8.23;6.00;;;;;;;27.03;43.26;94826.25;5072516;28;20449;-72
2021/05/01 07:59:35;;;;;;;17.07;5.80;;;;;;;26.99;41.55;94825.09;5072531;28;20448;-72
2021/05/01 08:02:03;;;;;;;16.70;6.33;;;;;;;26.95;41.83;94817.69;5070301;28;20448;-74
2021/05/01 08:04:30;;;;;;;12.60;5.80;;;;;;;27.07;42.76;94837.38;5072677;28;20449;-72
2021/05/01 08:06:56;;;;;;;15.07;6.57;;;;;;;27.08;40.95;94829.06;5072371;28;20987;-73
2021/05/01 08:09:22;;;;;;;14.33;5.23;;;;;;;27.06;40.76;94815.00;5072643;28;20836;-73
2021/05/01 08:11:49;;;;;;;10.47;6.03;;;;;;;26.98;42.46;94804.56;5003904;28;20472;-72
2021/05/01 08:14:16;;;;;;;17.13;6.87;;;;;;;26.88;42.85;94807.00;5072868;28;20436;-73
2021/05/01 08:16:43;;;;;;;11.97;6.50;;;;;;;26.86;42.87;94811.81;5072515;28;20928;-74
2021/05/01 08:19:09;;;;;;;17.50;6.87;;;;;;;26.64;43.48;94825.03;5072399;28;20448;-77
2021/05/01 08:21:36;;;;;;;10.97;6.60;;;;;;;26.29;44.42;94808.72;5072330;28;20441;-73
2021/05/01 08:24:03;;;;;;;12.97;6.80;;;;;;;26.44;44.16;94811.84;5072208;28;20449;-74
2021/05/01 08:26:30;;;;;;;7.60;5.20;;;;;;;26.49;43.72;94814.66;5072604;28;20455;-74
2021/05/01 08:28:56;;;;;;;13.53;6.40;;;;;;;26.57;43.43;94808.13;5072315;28;20460;-74
2021/05/01 08:31:22;;;;;;;14.17;6.40;;;;;;;26.46;44.21;94804.38;5072301;28;20451;-74
2021/05/01 08:33:50;;;;;;;9.40;6.37;;;;;;;26.55;43.66;94805.66;5072194;28;20941;-74
2021/05/01 08:36:17;;;;;;;12.90;5.30;;;;;;;26.79;44.54;94805.72;5072261;28;20541;-74
2021/05/01 08:38:43;;;;;;;12.43;5.83;;;;;;;26.95;44.11;94798.84;5070258;28;20940;-73
2021/05/01 08:41:10;;;;;;;13.40;6.20;;;;;;;26.80;44.74;94786.63;5072296;28;20440;-73
2021/05/01 08:43:36;;;;;;;10.93;6.57;;;;;;;26.64;44.11;94784.63;5072315;28;20510;-74
2021/05/01 08:46:12;;;;;;;14.87;5.80;;;;;;;26.77;44.78;94786.28;5072243;28;20449;-75
2021/05/01 08:48:38;;;;;;;21.47;6.60;;;;;;;26.81;45.73;94790.97;5072691;28;20448;-74
2021/05/01 08:51:06;;;;;;;21.03;6.17;;;;;;;26.90;43.33;94777.19;5070791;28;20797;-74
2021/05/01 08:53:33;;;;;;;16.07;8.47;;;;;;;26.76;43.43;94763.09;5088568;28;20456;-74
2021/05/01 08:56:00;;;;;;;17.73;6.00;;;;;;;26.83;43.63;94774.56;5071914;28;20477;-74
2021/05/01 08:58:26;;;;;;;17.23;6.00;;;;;;;26.93;42.64;94780.22;5071887;28;20913;-74
2021/05/01 09:00:53;;;;;;;8.00;6.07;;;;;;;27.08;42.91;94767.13;5076402;28;20928;-74
2021/05/01 09:03:21;;;;;;;19.63;8.30;;;;;;;27.20;42.25;94763.59;5072128;28;20486;-74
2021/05/01 09:05:48;;;;;;;12.43;8.57;;;;;;;27.29;42.03;94756.78;5074817;28;20452;-76
2021/05/01 09:08:17;;;;;;;23.40;15.13;;;;;;;27.28;50.48;94747.88;5076357;28;20510;-76
2021/05/01 09:10:46;;;;;;;13.53;7.50;;;;;;;27.22;44.73;94745.31;5076142;28;20583;-76
2021/05/01 09:13:15;;;;;;;15.10;8.70;;;;;;;27.22;45.63;94742.63;5085256;28;20532;-78
2021/05/01 09:15:54;;;;;;;21.23;7.47;;;;;;;27.24;45.63;94748.59;5087660;28;20979;-75
2021/05/01 09:18:20;;;;;;;17.10;5.80;;;;;;;27.08;41.47;94742.88;5096118;28;20908;-74
2021/05/01 09:20:50;;;;;;;13.03;5.50;;;;;;;26.89;40.71;94735.09;5087068;28;20940;-74
2021/05/01 09:23:17;;;;;;;12.57;4.90;;;;;;;26.92;41.44;94738.19;5075339;28;20944;-74
2021/05/01 09:25:54;;;;;;;9.40;5.40;;;;;;;26.93;41.34;94742.50;5075508;28;20817;-73
2021/05/01 09:28:22;;;;;;;12.97;5.80;;;;;;;26.99;41.12;94746.97;5081684;28;20486;-74
2021/05/01 09:31:03;;;;;;;12.90;5.20;;;;;;;27.05;40.93;94746.03;5095980;28;20500;-74
2021/05/01 09:33:31;;;;;;;15.83;5.10;;;;;;;27.07;40.99;94743.91;5075410;28;20448;-73
2021/05/01 09:36:08;;;;;;;13.73;5.67;;;;;;;27.03;40.16;94747.31;5095721;28;20482;-74
2021/05/01 09:38:41;;;;;;;6.90;4.90;;;;;;;26.99;39.83;94746.97;5085998;28;20463;-73
2021/05/01 09:41:13;;;;;;;11.43;6.03;;;;;;;26.98;40.39;94741.81;5075377;28;20787;-73
2021/05/01 09:44:02;;;;;;;22.23;7.57;;;;;;;27.08;41.12;94745.56;5075598;28;20453;-72
2021/05/01 09:46:28;;;;;;;22.17;6.00;;;;;;;27.15;40.67;94740.03;5093639;28;20455;-74
2021/05/01 09:49:03;;;;;;;16.37;5.50;;;;;;;27.17;41.55;94737.94;5095408;28;20439;-74
2021/05/01 09:51:33;;;;;;;10.87;4.70;;;;;;;27.26;41.24;94733.84;5095470;28;20446;-74
2021/05/01 09:54:00;;;;;;;9.03;5.30;;;;;;;27.23;39.58;94736.19;5068250;28;20453;-74
2021/05/01 09:56:29;;;;;;;15.13;5.27;;;;;;;27.35;40.65;94736.97;5042521;28;21049;-73
2021/05/01 09:58:56;;;;;;;15.90;5.80;;;;;;;27.29;39.92;94737.94;5072199;28;20479;-73
2021/05/01 10:01:24;;;;;;;16.07;5.07;;;;;;;27.32;38.91;94734.75;5075009;28;20555;-74
2021/05/01 10:03:50;;;;;;;14.53;5.20;;;;;;;27.44;39.97;94732.84;5075100;28;20490;-75
2021/05/01 10:06:20;;;;;;;13.47;6.00;;;;;;;27.49;38.88;94730.28;5075116;28;20441;-76
2021/05/01 10:08:53;;;;;;;12.70;4.57;;;;;;;27.46;38.91;94728.03;5074262;28;20928;-75
2021/05/01 10:11:29;;;;;;;11.07;5.73;;;;;;;27.61;41.01;94733.75;5074011;28;20464;-75
2021/05/01 10:13:56;;;;;;;14.80;5.80;;;;;;;27.82;40.53;94726.91;5074017;28;20456;-75
2021/05/01 10:16:24;;;;;;;12.97;4.83;;;;;;;27.99;40.77;94724.22;5073928;28;20480;-76
2021/05/01 10:19:08;;;;;;;7.80;4.90;;;;;;;27.74;39.86;94711.09;5083087;28;20444;-76
2021/05/01 10:21:36;;;;;;;10.47;6.00;;;;;;;27.85;40.17;94704.03;5094868;28;20452;-76
2021/05/01 10:24:03;;;;;;;12.80;6.07;;;;;;;27.76;39.82;94699.03;5094739;28;20459;-74
2021/05/01 10:26:45;;;;;;;11.80;6.37;;;;;;;27.58;40.07;94696.47;5094601;28;20440;-75
2021/05/01 10:29:25;;;;;;;10.40;5.10;;;;;;;27.64;39.21;94683.94;5095029;28;20461;-75
2021/05/01 10:31:55;;;;;;;11.53;5.30;;;;;;;27.81;39.78;94674.03;5094739;28;20447;-74
2021/05/01 10:34:24;;;;;;;8.13;5.60;;;;;;;27.76;39.16;94677.47;5094689;28;20502;-76
2021/05/01 10:36:53;;;;;;;7.80;4.20;;;;;;;27.76;40.52;94677.47;5094294;28;20488;-76
2021/05/01 10:39:20;;;;;;;10.80;5.10;;;;;;;28.02;39.40;94669.78;5075581;28;20478;-75
2021/05/01 10:41:58;;;;;;;14.60;5.10;;;;;;;28.10;38.16;94666.72;5094349;28;20451;-76
2021/05/01 10:44:25;;;;;;;8.03;4.87;;;;;;;28.18;38.11;94662.78;5094493;28;20473;-75
2021/05/01 10:47:09;;;;;;;11.53;4.67;;;;;;;28.28;37.67;94658.41;5094397;28;20480;-78
2021/05/01 10:49:36;;;;;;;9.93;4.80;;;;;;;28.30;34.86;94661.66;5094274;28;20497;-77
2021/05/01 10:52:14;;;;;;;13.60;4.93;;;;;;;28.25;34.40;94653.50;5094434;28;20440;-75
2021/05/01 10:54:57;;;;;;;20.03;4.93;;;;;;;28.27;33.72;94650.53;5058501;28;20448;-75
2021/05/01 10:57:24;;;;;;;14.63;4.20;;;;;;;28.18;33.51;94658.22;5094209;28;20444;-75
2021/05/01 10:59:59;;;;;;;15.37;4.53;;;;;;;28.11;34.80;94649.47;5075009;28;20440;-74
2021/05/01 11:02:33;;;;;;;17.77;4.30;;;;;;;28.17;33.47;94656.56;5094446;28;20805;-75
2021/05/01 11:05:00;;;;;;;11.33;5.10;;;;;;;28.21;33.24;94656.91;5094195;28;20484;-75
2021/05/01 11:07:41;;;;;;;18.40;4.63;;;;;;;28.36;31.98;94659.88;5094111;28;20436;-75
2021/05/01 11:10:10;;;;;;;15.53;4.43;;;;;;;28.42;32.79;94656.19;5093940;28;20486;-75
2021/05/01 11:12:39;;;;;;;7.93;4.40;;;;;;;28.51;32.19;94662.00;5058420;28;20443;-76
2021/05/01 11:15:08;;;;;;;13.07;5.10;;;;;;;28.59;33.12;94661.56;5094099;28;20490;-75
2021/05/01 11:17:42;;;;;;;10.67;4.87;;;;;;;28.66;30.56;94656.84;5055179;28;20526;-75
2021/05/01 11:20:10;;;;;;;24.17;5.17;;;;;;;28.66;29.40;94651.44;5078241;28;20449;-75
2021/05/01 11:22:39;;;;;;;22.60;5.40;;;;;;;28.76;32.99;94650.75;5054836;28;20449;-75
2021/05/01 11:25:09;;;;;;;19.60;5.10;;;;;;;28.73;33.74;94643.97;5073527;28;20445;-75
2021/05/01 11:27:36;;;;;;;11.83;5.60;;;;;;;28.74;35.19;94650.19;5073067;28;20550;-75
2021/05/01 11:30:03;;;;;;;15.67;5.50;;;;;;;28.78;32.23;94651.31;5072688;28;20453;-75